Strona główna
METAR-TAF:

METAR-TAF

Lotnisko :

Port lotniczy Teheran-Mehrabad

Teheran, Iran

Szerokość geograficzna: 35-41N, Długość geograficzna: 051-21E, wysokość: 1204 m

Aktualna obserwacja pogody

Raport powstał 28 minut temu, godzina 01:30 UTC
Wiatr 6 kt od północ
Temperatura 21°C
Wilgotność 40%
Ciśnienie 1016 hPa
Widzialność 10 km lub więcej
Brak chmur poniżej 1500 m i brak chmur cumulonimbus

METAR: OIII 200130Z 35006KT CAVOK 21/07 Q1015 A2999

czas: 06:28 (01:58 UTC)

Prognoza

Raport powstał 2 godziny i 58 minut temu, godzina 23:00 UTC
Prognoza ważna od 20 godzina 00 UTC do 21 godzina 06 UTC
Wiatr 8 kt od północny zachód
Widzialność: 8000 m
Mało chmury na wysokości 4000 ft
Stopniowe zmiany
od 20 godzina 04 UTC do 20 godzina 06 UTC
Wiatr 8 kt od wschodnio-południowy wschód
Przejściowo
od 20 godzina 07 UTC do 20 godzina 15 UTC
Wiatr 14 kt od południowo-południowy zachód

TAF: OIII 192300Z 2000/2106 32008KT 8000 FEW040 BECMG 2004/2006 12008KT TEMPO 2007/2015 20014KT

Obserwacja i prognoza pogody dla ponad 4000 lotnisk (raport METAR i TAF).

Dostępne stacje oznaczono żółtymi i czerwonymi punktami na mapie.

Najedź kursorem aby zobaczyć nazwę stacji.

Kliknij aby zobaczyć obserwacje i prognozy pogody.

Aby zmienić mapę: kliknij na zielony przycisk z czarnym krzyżykiem, aby powiększyć; na zielony przycisk z myślnikiem, aby pomniejszyć; na zielone strzałki, aby przejść do map sąsiednich.


METAR-TAF: